Raleigh, NC (27601)

6:27 AM EST on December 07, 2016 (GMT -0500)
Raleigh Downtown | | Change Station

Elev 351 ft 35.78 °N, 78.64 °W | Updated 28 minutes ago

Partly Cloudy
Partly Cloudy
42.2 °F
Feels Like 42 °F
N
1.6
Wind Variable Wind from WNW
Gusts 0.0 mph

Today
High -- | Low -- °F
--% Chance of Precip.
Yesterday
High -- | Low -- °F
Precip. -- in
Pressure 30.00 in
Visibility 10.0 miles
Clouds Few 100 ft
Windchill 42 °F
Dew Point 40 °F
Humidity 94%
Rainfall 0.00 in
Snow Depth Not available.
7:11 AM 5:00 PM
First Quarter, 51% visible
METAR KRDU 071051Z 24003KT 10SM FEW001 03/03 A2999 RMK AO2 SLP157 T00330028
Pressure 30.00 in
Visibility 10.0 miles
Clouds Few 100 ft
Windchill 42 °F
Dew Point 40 °F
Humidity 94%
Rainfall 0.00 in
Snow Depth Not available.
7:11 AM 5:00 PM
First Quarter, 51% visible
METAR KRDU 071051Z 24003KT 10SM FEW001 03/03 A2999 RMK AO2 SLP157 T00330028

10-Day Weather Forecast

Almanac

Astronomy

Dec. 07, 2016 Rise Set
Actual Time
Civil Twilight
Nautical Twilight
Astronomical Twilight
Moon
Length of Visible Light
Length of Day
Tomorrow will be .
, % of the Moon is Illuminated

Today's Extremes

State Highs State Lows

Community

WunderPhotos

Upload Photos

1,956,111 photos uploaded!

WunderBlog® & News

Nearby

Air Quality

  Air Quality AQ Index Pollutant
Not available.

Snow Depth

Station Depth Elevation

Earthquake Activity

City Distance Mag. Time & Date
Minimum magnitude displayed is 2.5.

Coastal Water Temperatures

Place Temperature

Stations

Nearby Weather Stations

Station Location Temp. Windchill Dew Point Humidity Wind Precip. Elev Updated Type
                   

Watches & Warnings

There are currently no watches in effect.